Time;durP1;ratioP1;P1;durP2;ratioP2;P2;SDS_P1;SDS_P2;PMS_P1;PMS_P2;Temp;Humidity;BMP_temperature;BMP_pressure;BME280_temperature;BME280_humidity;BME280_pressure;Samples;Min_cycle;Max_cycle;Signal;HPM_P1;HPM_P2
2023/12/04 00:00:22;;;;;;;20.60;14.25;;;;;;;-1.61;58.59;100824.06;4488474;32;33803;-80
2023/12/04 00:02:51;;;;;;;20.00;13.48;;;;;;;-1.64;58.85;100833.59;4488140;32;33885;-80
2023/12/04 00:05:20;;;;;;;23.33;15.30;;;;;;;-1.68;58.86;100829.28;4487460;32;33639;-80
2023/12/04 00:07:50;;;;;;;23.10;13.05;;;;;;;-1.84;59.09;100828.50;4487933;32;33933;-80
2023/12/04 00:10:22;;;;;;;18.98;13.85;;;;;;;-1.62;58.66;100832.75;4488061;32;34320;-79
2023/12/04 00:12:52;;;;;;;17.35;12.85;;;;;;;-1.77;59.16;100828.47;4488042;32;33914;-80
2023/12/04 00:15:23;;;;;;;19.33;15.85;;;;;;;-1.85;59.51;100822.44;4487682;32;34010;-80
2023/12/04 00:17:53;;;;;;;22.27;14.73;;;;;;;-1.46;58.63;100825.72;4487748;32;33765;-80
2023/12/04 00:20:22;;;;;;;20.12;14.75;;;;;;;-1.50;58.78;100824.88;4473921;32;32377;-80
2023/12/04 00:22:51;;;;;;;24.98;15.02;;;;;;;-1.69;59.52;100817.19;4473510;32;32602;-79
2023/12/04 00:25:20;;;;;;;22.77;15.50;;;;;;;-1.81;59.97;100824.16;4473043;32;32821;-79
2023/12/04 00:27:50;;;;;;;25.40;13.65;;;;;;;-1.81;60.03;100833.69;4487232;32;34252;-80
2023/12/04 00:30:19;;;;;;;21.55;14.85;;;;;;;-1.87;59.93;100824.16;4487941;32;33928;-79
2023/12/04 00:33:09;;;;;;;23.02;15.25;;;;;;;-1.68;59.40;100830.16;4487256;32;49686;-79
2023/12/04 00:35:39;;;;;;;24.25;13.98;;;;;;;-1.75;58.78;100834.50;4487182;32;34890;-79
2023/12/04 00:38:08;;;;;;;23.75;14.32;;;;;;;-1.77;58.98;100830.19;4487504;32;34879;-79
2023/12/04 00:40:38;;;;;;;24.92;14.35;;;;;;;-1.81;58.67;100826.75;4488142;32;34058;-79
2023/12/04 00:43:08;;;;;;;19.10;14.55;;;;;;;-1.82;58.66;100826.72;4487479;32;33782;-79
2023/12/04 00:45:37;;;;;;;19.45;14.25;;;;;;;-1.95;58.84;100823.31;4488146;31;33702;-79
2023/12/04 00:48:06;;;;;;;20.85;14.20;;;;;;;-1.84;58.55;100823.28;4487211;32;48873;-79
2023/12/04 00:50:39;;;;;;;20.73;12.98;;;;;;;-1.89;58.42;100825.91;4487716;32;34594;-79
2023/12/04 00:53:09;;;;;;;22.58;14.75;;;;;;;-2.06;58.78;100823.37;4487213;32;34069;-79
2023/12/04 00:55:38;;;;;;;19.00;14.87;;;;;;;-1.92;58.39;100823.31;4487382;31;33550;-79
2023/12/04 00:58:07;;;;;;;18.73;14.02;;;;;;;-2.01;58.71;100815.56;4487194;32;34925;-79
2023/12/04 01:00:39;;;;;;;23.40;15.30;;;;;;;-1.92;58.49;100820.72;4488108;32;33948;-79
2023/12/04 01:03:08;;;;;;;21.80;15.02;;;;;;;-1.92;58.41;100814.66;4472298;32;46782;-79
2023/12/04 01:05:39;;;;;;;24.37;15.75;;;;;;;-1.92;58.04;100817.28;4485539;32;33478;-78
2023/12/04 01:08:08;;;;;;;22.20;14.32;;;;;;;-2.05;58.40;100821.66;4485410;32;33819;-77
2023/12/04 01:10:40;;;;;;;20.88;14.07;;;;;;;-1.89;57.94;100815.53;4485659;32;33662;-77
2023/12/04 01:13:09;;;;;;;20.40;14.35;;;;;;;-1.73;57.48;100819.78;4485201;32;33835;-77
2023/12/04 01:15:38;;;;;;;21.27;14.93;;;;;;;-1.95;57.98;100823.31;4484947;32;33437;-77
2023/12/04 01:18:08;;;;;;;19.02;13.75;;;;;;;-2.05;58.30;100826.84;4487402;32;33609;-77
2023/12/04 01:20:41;;;;;;;21.17;14.87;;;;;;;-2.14;58.58;100839.81;4487484;32;34966;-77
2023/12/04 01:23:10;;;;;;;25.35;15.27;;;;;;;-2.40;59.02;100839.91;4472955;32;33502;-77
2023/12/04 01:25:39;;;;;;;17.90;13.38;;;;;;;-2.62;59.94;100857.19;4487027;31;34205;-77
2023/12/04 01:28:08;;;;;;;19.48;14.23;;;;;;;-3.00;61.40;100860.66;4487097;32;34576;-77
2023/12/04 01:30:39;;;;;;;21.67;13.38;;;;;;;-2.67;60.50;100857.19;4487891;32;34110;-77
2023/12/04 01:33:09;;;;;;;19.37;14.40;;;;;;;-2.50;60.25;100857.19;4472737;32;47597;-77
2023/12/04 01:35:38;;;;;;;21.62;14.95;;;;;;;-2.60;60.54;100861.53;4472559;32;33932;-77
2023/12/04 01:38:12;;;;;;;17.15;12.27;;;;;;;-2.31;59.50;100853.72;4487396;32;33583;-77
2023/12/04 01:40:45;;;;;;;20.45;13.82;;;;;;;-2.40;59.71;100850.28;4487006;32;34002;-77
2023/12/04 01:43:15;;;;;;;19.75;14.00;;;;;;;-2.52;59.97;100853.75;4486802;32;34318;-77
2023/12/04 01:45:45;;;;;;;19.08;13.73;;;;;;;-2.53;60.15;100841.66;4486697;32;34098;-77
2023/12/04 01:48:16;;;;;;;19.05;13.95;;;;;;;-2.37;59.63;100843.34;4487109;32;34647;-78
2023/12/04 01:50:46;;;;;;;21.75;13.75;;;;;;;-2.39;59.61;100849.41;4472056;32;33514;-77
2023/12/04 01:53:16;;;;;;;22.65;14.32;;;;;;;-2.48;59.65;100855.47;4471759;32;34422;-77
2023/12/04 01:55:47;;;;;;;21.17;13.98;;;;;;;-2.20;58.36;100852.84;4472159;32;34306;-77
2023/12/04 01:58:17;;;;;;;17.92;12.35;;;;;;;-2.37;58.72;100858.06;4472193;32;32914;-77
2023/12/04 02:00:48;;;;;;;20.67;13.35;;;;;;;-2.62;59.39;100858.06;4486520;32;33925;-77
2023/12/04 02:03:18;;;;;;;18.58;12.20;;;;;;;-2.44;58.99;100853.75;4487190;32;33765;-77
2023/12/04 02:05:48;;;;;;;18.85;12.63;;;;;;;-2.38;58.76;100851.13;4486100;32;33631;-77
2023/12/04 02:08:19;;;;;;;18.77;13.00;;;;;;;-2.41;58.64;100846.81;4486481;32;34078;-78
2023/12/04 02:10:49;;;;;;;17.83;13.23;;;;;;;-2.58;58.79;100843.34;4486576;32;34559;-77
2023/12/04 02:13:18;;;;;;;17.60;13.23;;;;;;;-2.34;58.28;100843.31;4486566;32;33912;-77
2023/12/04 02:15:52;;;;;;;21.20;13.52;;;;;;;-2.43;58.32;100842.47;4485804;31;33571;-77
2023/12/04 02:18:23;;;;;;;19.12;12.45;;;;;;;-2.57;58.72;100847.69;4487063;32;34099;-77
2023/12/04 02:20:54;;;;;;;19.40;12.88;;;;;;;-2.57;58.72;100855.47;4486284;32;33610;-77
2023/12/04 02:23:24;;;;;;;20.42;13.45;;;;;;;-2.54;58.73;100852.88;4485845;32;33492;-77
2023/12/04 02:26:00;;;;;;;20.30;13.02;;;;;;;-2.64;59.02;100851.16;4471302;32;34712;-77
2023/12/04 02:28:33;;;;;;;20.73;14.45;;;;;;;-2.80;59.30;100845.09;4485919;32;33886;-77
2023/12/04 02:31:05;;;;;;;20.80;13.30;;;;;;;-2.69;59.22;100845.09;4486383;32;33789;-77
2023/12/04 02:33:37;;;;;;;18.83;14.38;;;;;;;-2.63;59.00;100845.09;4486753;32;33970;-77
2023/12/04 02:38:46;;;;;;;18.83;13.52;;;;;;;-2.98;59.55;100848.53;4485611;32;34024;-77
2023/12/04 02:41:18;;;;;;;27.37;14.32;;;;;;;-2.91;59.45;100845.09;4487176;32;34115;-79
2023/12/04 02:43:48;;;;;;;20.95;13.75;;;;;;;-2.97;59.66;100851.16;4487684;32;34198;-79
2023/12/04 02:46:22;;;;;;;20.90;14.35;;;;;;;-2.97;59.31;100853.75;4485710;31;33575;-79
2023/12/04 02:48:51;;;;;;;26.45;15.23;;;;;;;-3.04;59.72;100861.50;4486101;32;34848;-79
2023/12/04 02:51:21;;;;;;;20.48;13.95;;;;;;;-2.84;59.25;100861.53;4486867;32;33981;-79
2023/12/04 02:53:51;;;;;;;20.83;14.75;;;;;;;-2.80;58.92;100860.66;4486008;32;33722;-79
2023/12/04 02:56:21;;;;;;;20.85;13.52;;;;;;;-2.91;59.50;100854.59;4486683;31;33845;-79
2023/12/04 02:58:51;;;;;;;23.83;15.30;;;;;;;-2.67;58.96;100861.53;4486935;32;34155;-79
2023/12/04 03:01:23;;;;;;;20.00;13.93;;;;;;;-2.74;59.05;100865.84;4487070;32;34056;-79
2023/12/04 03:03:53;;;;;;;21.98;14.63;;;;;;;-2.94;59.55;100863.22;4486532;32;34020;-79
2023/12/04 03:06:22;;;;;;;20.25;13.52;;;;;;;-3.00;59.73;100864.09;4487567;31;33926;-79
2023/12/04 03:08:51;;;;;;;18.42;12.43;;;;;;;-2.77;58.98;100858.94;4486591;32;34024;-79
2023/12/04 03:11:22;;;;;;;19.92;14.05;;;;;;;-3.26;60.16;100861.44;4486569;32;34554;-78
2023/12/04 03:13:51;;;;;;;18.90;13.75;;;;;;;-3.13;59.89;100854.53;4486248;32;34356;-77
2023/12/04 03:16:21;;;;;;;21.80;14.73;;;;;;;-2.96;59.72;100862.38;4486104;31;32924;-77
2023/12/04 03:18:49;;;;;;;20.48;13.60;;;;;;;-2.85;59.23;100870.16;4487171;32;34175;-77
2023/12/04 03:21:19;;;;;;;23.17;13.88;;;;;;;-2.70;58.81;100859.78;4488151;32;33817;-77
2023/12/04 03:23:48;;;;;;;19.60;13.52;;;;;;;-2.96;59.18;100857.19;4486611;32;33706;-77
2023/12/04 03:26:17;;;;;;;21.90;13.15;;;;;;;-2.99;59.37;100870.16;4486331;31;33790;-77
2023/12/04 03:28:48;;;;;;;18.77;11.95;;;;;;;-2.89;59.22;100869.31;4486676;32;34186;-77
2023/12/04 03:31:18;;;;;;;23.23;14.10;;;;;;;-2.76;58.70;100875.38;4485878;32;35537;-77
2023/12/04 03:33:51;;;;;;;19.92;13.52;;;;;;;-2.90;58.99;100880.53;4486129;32;34150;-77
2023/12/04 03:36:21;;;;;;;17.83;12.43;;;;;;;-2.91;59.18;100877.94;4486799;32;33914;-77
2023/12/04 03:38:50;;;;;;;19.58;13.38;;;;;;;-3.05;59.44;100876.19;4471113;32;32387;-77
2023/12/04 03:41:22;;;;;;;19.52;12.50;;;;;;;-2.72;58.72;100880.56;4485261;32;34063;-77
2023/12/04 03:43:53;;;;;;;24.10;14.07;;;;;;;-2.54;58.05;100876.22;4485560;32;34714;-77
2023/12/04 03:46:25;;;;;;;20.33;13.95;;;;;;;-2.76;58.40;100871.03;4485763;31;33798;-77
2023/12/04 03:48:57;;;;;;;17.33;12.90;;;;;;;-3.07;58.89;100877.91;4485345;32;34821;-77
2023/12/04 03:51:26;;;;;;;20.40;12.52;;;;;;;-3.09;58.99;100877.06;4486546;32;34200;-77
2023/12/04 03:53:59;;;;;;;18.92;12.27;;;;;;;-3.12;58.70;100874.44;4485629;32;33906;-77
2023/12/04 03:56:28;;;;;;;;;;;;;;;-3.17;58.73;100881.34;4485303;31;33281;-77
2023/12/04 03:58:59;;;;;;;22.35;12.63;;;;;;;-2.81;57.97;100872.78;4484812;32;34746;-77
2023/12/04 04:01:34;;;;;;;19.60;13.20;;;;;;;-3.15;58.59;100866.66;4486487;32;33884;-77
2023/12/04 04:04:04;;;;;;;17.98;11.63;;;;;;;-3.23;58.71;100858.00;4485591;32;33810;-77
2023/12/04 04:06:33;;;;;;;20.27;13.60;;;;;;;-3.24;58.93;100851.09;4479043;32;35879;-77
2023/12/04 04:09:02;;;;;;;22.87;14.13;;;;;;;-3.11;58.61;100854.56;4485721;32;33837;-77
2023/12/04 04:11:32;;;;;;;17.17;11.95;;;;;;;-3.08;58.78;100852.00;4470717;32;32081;-77
2023/12/04 04:14:03;;;;;;;19.27;11.82;;;;;;;-3.18;59.11;100847.63;4485083;32;33928;-77
2023/12/04 04:16:35;;;;;;;24.00;14.60;;;;;;;-2.90;57.99;100843.34;4484906;31;33679;-77
2023/12/04 04:19:04;;;;;;;;;;;;;;;-3.19;58.47;100845.91;4471006;32;32627;-77
2023/12/04 04:21:34;;;;;;;19.85;12.40;;;;;;;-3.22;58.31;100845.03;4485472;32;34177;-77
2023/12/04 04:24:04;;;;;;;19.45;12.88;;;;;;;-3.28;58.55;100855.41;4484555;32;49272;-77
2023/12/04 04:26:35;;;;;;;20.12;14.45;;;;;;;-3.43;58.72;100860.53;4484375;32;33841;-77
2023/12/04 04:29:06;;;;;;;24.87;14.52;;;;;;;-3.34;58.57;100859.69;4484867;32;33717;-77
2023/12/04 04:31:41;;;;;;;26.12;15.45;;;;;;;-3.41;58.96;100853.63;4483988;32;34923;-77
2023/12/04 04:34:14;;;;;;;25.95;15.02;;;;;;;-3.42;59.09;100864.00;4483893;31;33575;-77
2023/12/04 04:36:44;;;;;;;26.27;14.32;;;;;;;-3.27;58.70;100867.50;4483657;32;33428;-77
2023/12/04 04:39:14;;;;;;;28.30;16.65;;;;;;;-3.17;58.58;100862.31;4484088;32;35115;-77
2023/12/04 04:41:47;;;;;;;19.50;12.70;;;;;;;-3.24;58.73;100872.69;4483289;32;34855;-77
2023/12/04 04:44:18;;;;;;;22.25;13.95;;;;;;;-3.19;58.70;100867.53;4485724;32;33959;-77
2023/12/04 04:46:48;;;;;;;20.25;13.98;;;;;;;-3.25;58.97;100859.72;4486251;32;33213;-77
2023/12/04 04:49:18;;;;;;;23.05;14.50;;;;;;;-3.06;58.61;100863.22;4485511;32;35837;-77
2023/12/04 04:51:48;;;;;;;16.98;13.13;;;;;;;-3.01;58.64;100864.06;4487191;32;33713;-77
2023/12/04 04:54:17;;;;;;;20.50;12.77;;;;;;;-3.24;58.90;100864.91;4488762;31;33424;-77
2023/12/04 04:56:47;;;;;;;19.73;12.80;;;;;;;-3.18;58.70;100866.66;4486242;32;33792;-77
2023/12/04 04:59:17;;;;;;;19.58;12.50;;;;;;;-3.30;58.79;100871.81;4484841;32;35178;-77
2023/12/04 05:01:47;;;;;;;19.80;12.73;;;;;;;-3.21;58.76;100874.41;4484790;32;34113;-77
2023/12/04 05:04:16;;;;;;;24.30;13.48;;;;;;;-3.19;58.43;100884.81;4484580;31;34063;-77
2023/12/04 05:06:46;;;;;;;18.48;11.68;;;;;;;-3.23;58.60;100882.19;4484734;32;33415;-77
2023/12/04 05:09:15;;;;;;;19.73;12.88;;;;;;;-3.03;58.02;100882.25;4485129;32;33726;-77
2023/12/04 05:11:47;;;;;;;19.48;12.63;;;;;;;-3.09;57.97;100877.06;4484670;32;33964;-77
2023/12/04 05:14:17;;;;;;;19.15;13.05;;;;;;;-3.23;58.35;100876.16;4484441;31;33787;-77
2023/12/04 05:16:47;;;;;;;22.17;16.00;;;;;;;-3.33;58.38;100877.84;4484707;32;34363;-77
2023/12/04 05:19:17;;;;;;;21.83;15.00;;;;;;;-3.34;58.31;100883.88;4484787;32;33583;-77
2023/12/04 05:21:47;;;;;;;24.45;13.70;;;;;;;-3.34;58.55;100883.03;4484724;32;34378;-77
2023/12/04 05:24:17;;;;;;;19.48;13.18;;;;;;;-3.33;58.54;100874.37;4485518;31;34710;-77
2023/12/04 05:26:46;;;;;;;22.42;15.13;;;;;;;-3.22;58.13;100873.53;4488120;32;33906;-77
2023/12/04 05:29:19;;;;;;;20.92;12.68;;;;;;;-3.52;58.81;100868.28;4484818;32;35737;-77
2023/12/04 05:31:49;;;;;;;27.45;14.18;;;;;;;-3.67;59.60;100870.81;4484896;32;34230;-79
2023/12/04 05:34:18;;;;;;;21.08;14.15;;;;;;;-3.96;60.50;100881.88;4470154;31;32654;-77
2023/12/04 05:36:48;;;;;;;19.60;13.90;;;;;;;-4.18;61.42;100880.91;4469932;32;31971;-79
2023/12/04 05:39:18;;;;;;;23.27;14.48;;;;;;;-4.39;62.00;100884.22;4484638;32;34622;-78
2023/12/04 05:41:47;;;;;;;18.80;12.82;;;;;;;-4.58;62.39;100877.16;4469761;32;32484;-78
2023/12/04 05:44:18;;;;;;;26.90;15.75;;;;;;;-4.43;61.98;100882.47;4469673;31;33303;-78
2023/12/04 05:46:49;;;;;;;25.73;15.02;;;;;;;-4.52;62.29;100879.78;4484949;32;33581;-79
2023/12/04 05:49:19;;;;;;;19.70;14.75;;;;;;;-4.90;63.32;100877.75;4484245;32;34371;-78
2023/12/04 05:51:48;;;;;;;28.85;18.23;;;;;;;-4.19;61.67;100880.91;4484167;32;34098;-78
2023/12/04 05:54:17;;;;;;;21.60;15.02;;;;;;;-4.40;61.79;100879.00;4484366;31;33904;-78
2023/12/04 05:56:48;;;;;;;23.45;15.40;;;;;;;-4.26;61.67;100877.41;4483991;32;34291;-78
2023/12/04 05:59:18;;;;;;;20.98;15.27;;;;;;;-4.30;61.64;100881.69;4484172;32;33896;-78
2023/12/04 06:01:48;;;;;;;22.13;14.50;;;;;;;-4.23;61.37;100886.06;4484014;32;33661;-78
2023/12/04 06:04:18;;;;;;;21.98;15.07;;;;;;;-4.05;60.69;100885.28;4483823;32;33739;-78
2023/12/04 06:06:47;;;;;;;21.33;14.32;;;;;;;-3.89;59.71;100886.25;4484286;32;33335;-78
2023/12/04 06:09:17;;;;;;;21.70;14.85;;;;;;;-4.21;60.84;100880.87;4470257;32;32330;-78
2023/12/04 06:11:47;;;;;;;22.75;13.85;;;;;;;-3.83;60.12;100872.47;4484462;32;33927;-78
2023/12/04 06:14:16;;;;;;;23.48;16.12;;;;;;;-3.84;60.03;100879.38;4483825;32;33989;-78
2023/12/04 06:16:47;;;;;;;26.45;17.08;;;;;;;-3.90;60.48;100879.34;4483884;32;34298;-78
2023/12/04 06:19:17;;;;;;;21.70;15.18;;;;;;;-3.83;60.30;100886.28;4485820;32;33828;-78
2023/12/04 06:21:49;;;;;;;25.80;16.92;;;;;;;-3.88;60.42;100885.41;4484230;32;34564;-78
2023/12/04 06:24:19;;;;;;;21.08;14.77;;;;;;;-3.87;60.67;100887.13;4484404;32;34917;-78
2023/12/04 06:26:51;;;;;;;19.67;13.98;;;;;;;-3.78;60.63;100894.06;4484144;32;33638;-78
2023/12/04 06:29:21;;;;;;;23.33;13.77;;;;;;;-3.93;60.95;100897.44;4484202;32;34634;-78
2023/12/04 06:31:53;;;;;;;18.77;13.80;;;;;;;-3.50;60.09;100889.88;4484121;32;34583;-78
2023/12/04 06:34:24;;;;;;;19.30;14.82;;;;;;;-3.36;59.59;100889.94;4484155;32;34659;-78
2023/12/04 06:36:55;;;;;;;19.83;13.93;;;;;;;-3.50;59.80;100892.47;4483971;32;34039;-78
2023/12/04 06:39:31;;;;;;;24.87;15.02;;;;;;;-3.69;60.09;100895.84;4484533;32;33941;-78
2023/12/04 06:42:01;;;;;;;24.20;14.68;;;;;;;-3.79;61.07;100897.53;4483515;32;33769;-78
2023/12/04 06:44:33;;;;;;;25.95;14.65;;;;;;;-3.09;59.54;100897.81;4483502;32;33566;-78
2023/12/04 06:47:05;;;;;;;26.25;15.77;;;;;;;-2.44;57.69;100903.91;4483609;32;33493;-78
2023/12/04 06:49:35;;;;;;;22.08;14.52;;;;;;;-2.07;56.70;100906.47;4469164;32;31656;-78
2023/12/04 06:52:05;;;;;;;26.45;15.15;;;;;;;-1.69;55.25;100902.94;4469498;32;33273;-79
2023/12/04 06:54:35;;;;;;;22.33;14.57;;;;;;;-1.46;53.62;100902.84;4483860;32;33787;-78
2023/12/04 06:57:05;;;;;;;22.98;13.48;;;;;;;-1.95;54.92;100909.03;4483365;32;47676;-79
2023/12/04 06:59:34;;;;;;;23.83;15.15;;;;;;;-1.96;54.71;100906.44;4483365;32;33692;-78
2023/12/04 07:02:05;;;;;;;22.58;15.10;;;;;;;-1.95;55.01;100906.44;4483454;32;33955;-78
2023/12/04 07:04:35;;;;;;;24.10;15.82;;;;;;;-2.05;55.58;100900.41;4483186;32;34165;-78
2023/12/04 07:07:05;;;;;;;22.33;16.08;;;;;;;-2.03;55.70;100910.78;4468937;32;32857;-78
2023/12/04 07:09:35;;;;;;;25.83;16.30;;;;;;;-2.20;56.08;100907.34;4483781;32;34066;-78
2023/12/04 07:12:06;;;;;;;23.90;18.50;;;;;;;-2.40;56.85;100910.81;4468397;32;47353;-78
2023/12/04 07:14:36;;;;;;;23.02;15.40;;;;;;;-2.47;57.08;100922.06;4482987;31;32614;-78
2023/12/04 07:17:07;;;;;;;26.25;16.87;;;;;;;-2.88;58.64;100915.13;4468747;32;31822;-78
2023/12/04 07:19:36;;;;;;;27.80;16.85;;;;;;;-2.73;58.62;100909.09;4468751;32;32300;-78
2023/12/04 07:22:06;;;;;;;25.75;16.27;;;;;;;-2.84;58.91;100909.06;4483851;32;34716;-78
2023/12/04 07:24:35;;;;;;;22.95;15.73;;;;;;;-2.54;58.59;100910.81;4468917;32;34303;-78
2023/12/04 07:27:05;;;;;;;31.80;17.45;;;;;;;-2.16;57.59;100914.28;4483122;32;49071;-78
2023/12/04 07:29:35;;;;;;;25.40;17.02;;;;;;;-2.38;58.82;100919.47;4483074;32;33710;-79
2023/12/04 07:32:05;;;;;;;26.30;17.55;;;;;;;-2.44;59.05;100911.69;4483146;32;34123;-78
2023/12/04 07:34:36;;;;;;;25.27;16.10;;;;;;;-1.96;58.57;100909.06;4468597;32;32678;-78
2023/12/04 07:37:06;;;;;;;29.43;17.60;;;;;;;-1.49;57.98;100906.31;4482864;32;34214;-78
2023/12/04 07:39:35;;;;;;;26.70;16.30;;;;;;;-0.78;56.65;100893.78;4483321;32;33431;-79
2023/12/04 07:42:05;;;;;;;22.87;16.77;;;;;;;-0.13;54.84;100899.31;4468660;32;47488;-78
2023/12/04 07:44:41;;;;;;;21.60;14.68;;;;;;;0.31;53.11;100893.66;4482839;32;34963;-78
2023/12/04 07:47:10;;;;;;;29.40;17.58;;;;;;;1.00;51.89;100897.16;4482881;32;33393;-78
2023/12/04 07:49:41;;;;;;;25.40;15.77;;;;;;;1.64;50.27;100906.59;4482841;32;35194;-78
2023/12/04 07:52:12;;;;;;;23.87;17.80;;;;;;;2.36;48.20;100898.31;4482991;32;34064;-78
2023/12/04 07:54:41;;;;;;;24.25;15.88;;;;;;;3.28;45.74;100898.09;4482790;32;33529;-79
2023/12/04 07:57:11;;;;;;;36.05;21.12;;;;;;;4.31;43.89;100891.09;4483509;32;33109;-79
2023/12/04 07:59:40;;;;;;;36.28;23.98;;;;;;;5.27;42.30;100885.63;4466395;32;32593;-79
2023/12/04 08:02:10;;;;;;;34.40;20.48;;;;;;;6.03;39.89;100884.87;4468541;32;33539;-79
2023/12/04 08:04:41;;;;;;;29.58;22.52;;;;;;;7.07;37.85;100873.12;4467026;32;32551;-80
2023/12/04 08:07:10;;;;;;;48.55;33.90;;;;;;;8.00;36.92;100865.78;4483526;32;33272;-79
2023/12/04 08:09:39;;;;;;;85.07;49.58;;;;;;;8.76;35.85;100866.81;4483024;32;34082;-79
2023/12/04 08:12:09;;;;;;;92.72;54.53;;;;;;;9.23;34.00;100865.50;4483732;31;34074;-80
2023/12/04 08:14:39;;;;;;;39.75;26.33;;;;;;;9.60;33.16;100868.03;4482511;32;33951;-80
2023/12/04 08:17:09;;;;;;;38.90;26.30;;;;;;;9.98;32.67;100869.69;4470451;32;32145;-80
2023/12/04 08:19:38;;;;;;;44.47;28.20;;;;;;;10.27;31.62;100866.41;4485032;32;34838;-80
2023/12/04 08:22:09;;;;;;;46.55;29.58;;;;;;;10.63;31.17;100868.03;4484786;32;34543;-80
2023/12/04 08:24:39;;;;;;;43.35;30.52;;;;;;;10.52;30.91;100871.25;4484529;32;33766;-79
2023/12/04 08:27:08;;;;;;;39.80;30.20;;;;;;;10.55;31.11;100873.75;4484702;32;33189;-80
2023/12/04 08:29:37;;;;;;;46.55;33.10;;;;;;;10.74;30.91;100870.13;4469425;32;32118;-80
2023/12/04 08:32:09;;;;;;;35.65;27.98;;;;;;;10.74;31.36;100875.41;4484121;32;33629;-80
2023/12/04 08:34:40;;;;;;;35.45;26.45;;;;;;;10.87;31.08;100871.16;4482515;32;33776;-80
2023/12/04 08:37:11;;;;;;;29.05;19.77;;;;;;;11.07;30.58;100868.25;4484982;32;34707;-81
2023/12/04 08:39:40;;;;;;;29.20;21.45;;;;;;;10.92;31.08;100870.87;4484833;32;33624;-80
2023/12/04 08:42:09;;;;;;;28.38;21.52;;;;;;;10.99;31.47;100865.16;4484314;32;34387;-81
2023/12/04 08:44:49;;;;;;;28.65;21.42;;;;;;;10.79;31.59;100874.22;4484290;32;34143;-81
2023/12/04 08:47:19;;;;;;;27.50;19.10;;;;;;;10.89;31.50;100869.28;4484103;32;34308;-81
2023/12/04 08:49:48;;;;;;;27.23;18.67;;;;;;;10.82;31.68;100868.75;4484401;32;34301;-81
2023/12/04 08:52:19;;;;;;;24.65;18.80;;;;;;;11.22;31.73;100861.22;4470136;32;34488;-81
2023/12/04 08:54:51;;;;;;;27.40;19.30;;;;;;;11.17;31.48;100865.09;4482648;32;34341;-81
2023/12/04 08:57:20;;;;;;;35.75;30.55;;;;;;;11.56;30.64;100875.19;4485812;32;33325;-80
2023/12/04 08:59:50;;;;;;;17.15;12.60;;;;;;;11.20;31.42;100875.50;4484227;32;34917;-80
2023/12/04 09:02:19;;;;;;;13.88;11.38;;;;;;;9.72;31.91;100871.84;4469716;32;34122;-81
2023/12/04 09:04:49;;;;;;;17.60;13.75;;;;;;;7.57;34.76;100879.94;4484154;32;34879;-80
2023/12/04 09:07:20;;;;;;;16.15;11.35;;;;;;;7.51;36.71;100888.06;4483286;32;33729;-80
2023/12/04 09:09:52;;;;;;;17.90;15.18;;;;;;;7.38;36.77;100885.09;4483563;32;33930;-80
2023/12/04 09:12:21;;;;;;;13.65;11.10;;;;;;;5.14;40.32;100898.25;4483725;32;33853;-80
2023/12/04 09:14:51;;;;;;;13.48;11.12;;;;;;;5.77;39.46;100884.87;4481748;32;34038;-80
2023/12/04 09:17:21;;;;;;;13.32;10.35;;;;;;;5.94;39.53;100889.59;4453737;32;32754;-80
2023/12/04 09:19:55;;;;;;;15.00;12.10;;;;;;;6.08;38.77;100884.72;4466870;32;34102;-79
2023/12/04 09:22:30;;;;;;;12.70;11.05;;;;;;;6.22;38.83;100882.47;4466685;32;33886;-79
2023/12/04 09:25:16;;;;;;;13.25;9.52;;;;;;;5.62;39.27;100888.88;4465394;32;34319;-79
2023/12/04 09:27:45;;;;;;;13.48;10.20;;;;;;;5.87;38.50;100876.63;4465626;32;33306;-79
2023/12/04 09:30:14;;;;;;;20.05;10.48;;;;;;;6.03;37.76;100881.41;4465795;32;34001;-78
2023/12/04 09:32:44;;;;;;;13.85;11.15;;;;;;;6.19;38.02;100866.78;4451035;32;33841;-78
2023/12/04 09:35:16;;;;;;;15.77;13.33;;;;;;;6.81;37.78;100865.34;4470557;32;33705;-78
2023/12/04 09:37:50;;;;;;;17.10;13.73;;;;;;;7.61;35.53;100857.78;4481558;32;34370;-78
2023/12/04 09:40:20;;;;;;;18.58;12.45;;;;;;;7.73;35.13;100853.78;4483189;32;35513;-78
2023/12/04 09:42:50;;;;;;;13.77;11.73;;;;;;;7.48;35.38;100851.28;4483777;32;33621;-78
2023/12/04 09:45:20;;;;;;;13.60;11.38;;;;;;;5.89;38.16;100856.38;4484159;32;34560;-78
2023/12/04 09:47:50;;;;;;;16.05;11.93;;;;;;;5.99;38.24;100843.81;4483363;32;34659;-78
2023/12/04 09:50:22;;;;;;;17.20;11.93;;;;;;;5.35;39.66;100848.59;4482891;31;33922;-78
2023/12/04 09:52:53;;;;;;;17.75;11.48;;;;;;;3.93;42.55;100851.91;4483362;32;34150;-78
2023/12/04 09:55:23;;;;;;;15.57;11.80;;;;;;;4.03;42.62;100849.03;4466868;32;34004;-78
2023/12/04 09:57:53;;;;;;;21.65;13.40;;;;;;;4.28;42.30;100838.75;4483095;32;33603;-79
2023/12/04 10:00:22;;;;;;;18.98;12.35;;;;;;;4.78;41.88;100834.59;4469198;32;32554;-78
2023/12/04 10:02:55;;;;;;;19.27;12.77;;;;;;;4.97;41.30;100832.28;4483314;32;34131;-78
2023/12/04 10:05:24;;;;;;;16.45;12.43;;;;;;;5.10;41.60;100830.97;4482805;31;33939;-78
2023/12/04 10:07:56;;;;;;;19.62;15.45;;;;;;;6.08;40.61;100811.91;4468793;32;32620;-78
2023/12/04 10:10:25;;;;;;;17.80;12.80;;;;;;;6.62;39.12;100816.03;4483253;32;34946;-78
2023/12/04 10:12:55;;;;;;;17.17;14.10;;;;;;;5.82;40.36;100810.19;4482843;32;34893;-78
2023/12/04 10:15:24;;;;;;;17.02;13.60;;;;;;;5.83;39.83;100814.53;4481476;32;34433;-78
2023/12/04 10:17:54;;;;;;;19.35;13.15;;;;;;;6.35;39.44;100804.78;4468645;32;34010;-78
2023/12/04 10:20:24;;;;;;;17.10;13.50;;;;;;;6.64;39.17;100790.50;4483091;32;34046;-78
2023/12/04 10:22:57;;;;;;;20.42;14.85;;;;;;;6.58;39.42;100790.75;4483392;32;34347;-78
2023/12/04 10:25:29;;;;;;;27.25;20.48;;;;;;;6.64;39.40;100790.50;4483367;32;33541;-78
2023/12/04 10:28:09;;;;;;;23.98;18.27;;;;;;;6.33;40.21;100784.69;4476872;32;33513;-78
2023/12/04 10:30:39;;;;;;;31.90;19.77;;;;;;;5.57;42.55;100781.22;4483103;32;33365;-77
2023/12/04 10:33:09;;;;;;;22.50;15.75;;;;;;;5.40;42.04;100788.84;4483582;32;33493;-77
2023/12/04 10:35:40;;;;;;;23.60;14.02;;;;;;;6.14;41.61;100774.84;4481341;32;34105;-77
2023/12/04 10:38:14;;;;;;;21.58;16.25;;;;;;;6.21;41.31;100766.72;4482814;32;33846;-77
2023/12/04 10:40:43;;;;;;;18.65;13.48;;;;;;;6.00;41.75;100763.97;4483562;32;34693;-77
2023/12/04 10:43:17;;;;;;;51.55;31.25;;;;;;;5.65;41.78;100760.78;4483795;32;34248;-77
2023/12/04 10:45:50;;;;;;;267.05;123.85;;;;;;;6.20;41.47;100765.00;4483319;32;33980;-77
2023/12/04 10:48:21;;;;;;;23.08;16.58;;;;;;;6.58;40.13;100764.41;4483884;32;34368;-77
2023/12/04 10:50:52;;;;;;;15.07;9.65;;;;;;;6.93;38.69;100750.75;4483890;32;34494;-77
2023/12/04 10:53:24;;;;;;;12.52;9.50;;;;;;;5.73;40.59;100757.91;4483377;32;33989;-77
2023/12/04 10:55:57;;;;;;;11.88;8.93;;;;;;;5.95;39.66;100751.91;4481778;32;35474;-77
2023/12/04 10:58:27;;;;;;;13.65;9.77;;;;;;;5.95;39.42;100752.75;4483810;32;33115;-78
2023/12/04 11:01:00;;;;;;;47.38;42.42;;;;;;;6.55;38.64;100743.47;4484050;32;34092;-77
2023/12/04 11:03:37;;;;;;;36.97;33.20;;;;;;;5.50;41.18;100744.69;4470067;32;31864;-77
2023/12/04 11:06:12;;;;;;;61.65;55.35;;;;;;;5.53;41.65;100741.97;4483892;32;49396;-77
2023/12/04 11:08:43;;;;;;;20.45;12.65;;;;;;;6.13;40.86;100736.28;4483482;32;33237;-78
2023/12/04 11:11:16;;;;;;;18.52;12.00;;;;;;;5.02;42.52;100742.81;4483835;31;33891;-77
2023/12/04 11:13:50;;;;;;;18.83;14.02;;;;;;;4.65;43.78;100742.25;4484101;32;34329;-77
2023/12/04 11:16:23;;;;;;;19.60;14.23;;;;;;;5.61;42.71;100722.38;4482336;32;34153;-77
2023/12/04 11:19:00;;;;;;;17.75;13.77;;;;;;;5.91;41.31;100725.69;4483762;32;34243;-77
2023/12/04 11:21:35;;;;;;;16.05;11.60;;;;;;;6.03;41.17;100721.78;4485074;32;34155;-77
2023/12/04 11:24:07;;;;;;;19.50;13.85;;;;;;;5.82;41.92;100719.88;4484644;32;48900;-77
2023/12/04 11:26:37;;;;;;;15.75;12.20;;;;;;;6.05;41.29;100714.66;4484646;32;33728;-77
2023/12/04 11:29:08;;;;;;;14.75;11.32;;;;;;;5.97;41.25;100711.47;4484150;32;33949;-77